createdAt,value
2023-02-22T00:01:21.170Z,12.57
2023-02-22T00:03:51.961Z,10.60
2023-02-22T00:06:21.179Z,12.30
2023-02-22T00:08:49.339Z,10.37
2023-02-22T00:11:17.497Z,12.10
2023-02-22T00:13:45.123Z,12.00
2023-02-22T00:16:15.571Z,11.80
2023-02-22T00:18:43.672Z,10.90
2023-02-22T00:21:12.275Z,14.30
2023-02-22T00:23:45.822Z,12.70
2023-02-22T00:26:17.481Z,11.53
2023-02-22T00:28:46.263Z,11.43
2023-02-22T00:31:14.010Z,14.10
2023-02-22T00:33:41.858Z,15.73
2023-02-22T00:36:10.885Z,12.47
2023-02-22T00:38:38.603Z,11.90
2023-02-22T00:41:06.857Z,11.60
2023-02-22T00:43:35.248Z,13.70
2023-02-22T00:46:03.035Z,14.50
2023-02-22T00:48:30.538Z,15.67
2023-02-22T00:50:57.900Z,18.70
2023-02-22T00:53:26.015Z,14.57
2023-02-22T00:55:53.518Z,10.93
2023-02-22T00:58:21.572Z,17.70
2023-02-22T01:00:49.988Z,15.50
2023-02-22T01:03:19.836Z,14.47
2023-02-22T01:05:47.810Z,11.27
2023-02-22T01:08:16.268Z,13.23
2023-02-22T01:10:44.396Z,14.13
2023-02-22T01:13:12.961Z,11.40
2023-02-22T01:15:42.191Z,9.70
2023-02-22T01:18:11.887Z,11.53
2023-02-22T01:20:39.568Z,14.33
2023-02-22T01:23:07.246Z,15.67
2023-02-22T01:25:35.416Z,13.53
2023-02-22T01:28:04.465Z,13.43
2023-02-22T01:30:33.451Z,12.93
2023-02-22T01:33:01.873Z,13.40
2023-02-22T01:35:37.786Z,15.60
2023-02-22T01:38:05.323Z,21.10
2023-02-22T01:40:34.557Z,22.30
2023-02-22T01:43:04.392Z,21.67
2023-02-22T01:45:55.007Z,17.03
2023-02-22T01:48:30.078Z,17.93
2023-02-22T01:51:01.813Z,22.63
2023-02-22T01:53:35.439Z,13.40
2023-02-22T01:56:03.707Z,17.47
2023-02-22T01:58:35.280Z,15.20
2023-02-22T02:01:02.673Z,14.37
2023-02-22T02:03:33.052Z,13.13
2023-02-22T02:06:06.130Z,13.53
2023-02-22T02:08:38.398Z,14.30
2023-02-22T02:11:09.213Z,12.47
2023-02-22T02:13:37.054Z,18.40
2023-02-22T02:16:04.843Z,17.87
2023-02-22T02:18:32.282Z,15.63
2023-02-22T02:21:36.903Z,11.67
2023-02-22T02:24:34.580Z,15.00
2023-02-22T02:27:13.678Z,10.33
2023-02-22T02:30:31.987Z,16.10
2023-02-22T02:33:04.951Z,15.53
2023-02-22T02:35:55.535Z,13.70
2023-02-22T02:38:30.264Z,14.40
2023-02-22T02:41:05.294Z,14.97
2023-02-22T02:43:36.790Z,19.13
2023-02-22T02:46:09.693Z,14.60
2023-02-22T02:48:41.485Z,14.10
2023-02-22T02:51:13.534Z,16.20
2023-02-22T02:53:45.567Z,15.97
2023-02-22T02:56:12.961Z,18.67
2023-02-22T02:58:48.347Z,14.47
2023-02-22T03:01:28.296Z,14.63
2023-02-22T03:04:27.376Z,12.67
2023-02-22T03:07:16.485Z,15.23
2023-02-22T03:09:57.756Z,15.57
2023-02-22T03:12:37.890Z,14.97
2023-02-22T03:15:13.305Z,15.90
2023-02-22T03:17:47.571Z,13.23
2023-02-22T03:20:30.821Z,13.87
2023-02-22T03:23:03.455Z,21.13
2023-02-22T03:25:36.382Z,12.17
2023-02-22T03:28:06.828Z,17.97
2023-02-22T03:30:39.353Z,12.77
2023-02-22T03:33:11.794Z,14.03
2023-02-22T03:35:42.478Z,17.33
2023-02-22T03:38:14.794Z,28.87
2023-02-22T03:40:45.830Z,16.33
2023-02-22T03:43:16.479Z,20.63
2023-02-22T03:45:46.517Z,18.50
2023-02-22T03:48:20.883Z,13.80
2023-02-22T03:50:50.512Z,11.60
2023-02-22T03:53:18.821Z,13.93
2023-02-22T03:55:50.887Z,15.53
2023-02-22T03:58:21.333Z,16.33
2023-02-22T04:00:52.420Z,14.23
2023-02-22T04:03:19.993Z,13.83
2023-02-22T04:05:48.179Z,19.10
2023-02-22T04:08:16.171Z,13.03
2023-02-22T04:10:43.493Z,13.50
2023-02-22T04:13:11.171Z,14.53
2023-02-22T04:15:38.578Z,13.73
2023-02-22T04:18:06.259Z,17.23
2023-02-22T04:20:34.188Z,12.17
2023-02-22T04:23:02.290Z,15.90
2023-02-22T04:25:29.561Z,15.67
2023-02-22T04:27:57.150Z,16.23
2023-02-22T04:30:24.482Z,16.03
2023-02-22T04:32:51.826Z,16.80
2023-02-22T04:35:19.661Z,16.00
2023-02-22T04:37:47.207Z,15.27
2023-02-22T04:40:17.171Z,14.17
2023-02-22T04:42:44.495Z,20.13
2023-02-22T04:45:12.170Z,19.83
2023-02-22T04:47:39.616Z,20.93
2023-02-22T04:50:08.276Z,49.40
2023-02-22T04:52:35.587Z,55.57
2023-02-22T04:55:04.112Z,42.77
2023-02-22T04:57:32.194Z,22.73
2023-02-22T04:59:59.525Z,11.53
2023-02-22T05:02:26.974Z,19.90
2023-02-22T05:04:54.308Z,15.90
2023-02-22T05:07:21.620Z,13.97
2023-02-22T05:09:48.908Z,15.07
2023-02-22T05:12:16.421Z,26.33
2023-02-22T05:14:44.422Z,18.43
2023-02-22T05:17:11.936Z,16.47
2023-02-22T05:19:40.316Z,21.53
2023-02-22T05:22:07.640Z,30.30
2023-02-22T05:24:34.940Z,32.33
2023-02-22T05:27:02.174Z,29.10
2023-02-22T05:29:29.444Z,50.90
2023-02-22T05:31:58.104Z,55.70
2023-02-22T05:34:25.454Z,50.43
2023-02-22T05:36:52.739Z,45.53
2023-02-22T05:39:20.115Z,47.90
2023-02-22T05:41:47.753Z,34.33
2023-02-22T05:44:15.088Z,36.60
2023-02-22T05:46:42.435Z,32.93
2023-02-22T05:49:10.413Z,53.70
2023-02-22T05:51:37.734Z,38.33
2023-02-22T05:54:05.223Z,73.33
2023-02-22T05:56:32.586Z,117.50
2023-02-22T05:58:59.986Z,66.33
2023-02-22T06:01:27.874Z,72.27
2023-02-22T06:03:55.129Z,64.30
2023-02-22T06:06:23.064Z,53.33
2023-02-22T06:08:50.517Z,38.70
2023-02-22T06:11:19.163Z,18.80
2023-02-22T06:13:51.101Z,22.67
2023-02-22T06:16:18.719Z,21.67
2023-02-22T06:18:46.079Z,26.43
2023-02-22T06:21:13.341Z,23.70
2023-02-22T06:23:41.275Z,17.03
2023-02-22T06:26:08.573Z,26.10
2023-02-22T06:28:36.080Z,22.70
2023-02-22T06:31:03.575Z,27.43
2023-02-22T06:33:30.877Z,36.73
2023-02-22T06:35:58.137Z,19.57
2023-02-22T06:38:27.016Z,22.07
2023-02-22T06:40:55.027Z,25.20
2023-02-22T06:43:23.568Z,26.90
2023-02-22T06:45:51.611Z,18.17
2023-02-22T06:48:18.990Z,22.00
2023-02-22T06:50:46.323Z,23.83
2023-02-22T06:53:13.644Z,25.83
2023-02-22T06:55:40.935Z,20.77
2023-02-22T06:58:08.900Z,25.00
2023-02-22T07:00:36.206Z,16.67
2023-02-22T07:03:04.694Z,19.07
2023-02-22T07:05:32.000Z,23.30
2023-02-22T07:08:04.167Z,24.67
2023-02-22T07:10:33.029Z,23.53
2023-02-22T07:13:00.539Z,19.53
2023-02-22T07:15:30.135Z,23.73
2023-02-22T07:17:58.058Z,29.27
2023-02-22T07:20:26.386Z,25.40
2023-02-22T07:22:53.736Z,22.40
2023-02-22T07:25:22.319Z,24.93
2023-02-22T07:27:51.687Z,20.57
2023-02-22T07:30:24.382Z,23.97
2023-02-22T07:32:53.290Z,17.77
2023-02-22T07:35:22.999Z,20.10
2023-02-22T07:37:50.349Z,25.13
2023-02-22T07:40:18.495Z,15.70
2023-02-22T07:42:57.323Z,19.67
2023-02-22T07:45:25.773Z,22.37
2023-02-22T07:47:54.376Z,20.50
2023-02-22T07:50:23.912Z,21.57
2023-02-22T07:52:53.643Z,43.93
2023-02-22T07:55:23.228Z,56.40
2023-02-22T07:57:52.241Z,41.07
2023-02-22T08:00:24.232Z,42.17
2023-02-22T08:02:52.230Z,56.23
2023-02-22T08:05:20.295Z,55.33
2023-02-22T08:07:47.585Z,57.23
2023-02-22T08:10:18.258Z,51.37
2023-02-22T08:12:45.558Z,69.50
2023-02-22T08:15:17.511Z,52.83
2023-02-22T08:17:44.855Z,31.77
2023-02-22T08:20:13.418Z,55.33
2023-02-22T08:22:43.673Z,41.73
2023-02-22T08:25:10.957Z,28.73
2023-02-22T08:27:38.352Z,28.87
2023-02-22T08:30:06.999Z,28.90
2023-02-22T08:32:34.780Z,30.63
2023-02-22T08:35:03.311Z,28.17
2023-02-22T08:37:31.298Z,34.53
2023-02-22T08:39:58.572Z,22.07
2023-02-22T08:42:25.939Z,22.63
2023-02-22T08:44:53.150Z,28.60
2023-02-22T08:47:20.429Z,27.13
2023-02-22T08:49:47.675Z,36.30
2023-02-22T08:52:14.924Z,25.30
2023-02-22T08:54:44.864Z,23.43
2023-02-22T08:57:12.214Z,40.33
2023-02-22T08:59:39.599Z,262.83
2023-02-22T09:02:13.414Z,77.03
2023-02-22T09:04:40.817Z,92.60
2023-02-22T09:07:08.153Z,58.57
2023-02-22T09:09:35.527Z,37.67
2023-02-22T09:12:04.423Z,43.17
2023-02-22T09:14:31.793Z,32.57
2023-02-22T09:16:59.017Z,22.83
2023-02-22T09:19:26.296Z,25.00
2023-02-22T09:21:54.399Z,26.20
2023-02-22T09:24:21.663Z,32.17
2023-02-22T09:26:53.421Z,28.93
2023-02-22T09:29:22.401Z,28.07
2023-02-22T09:31:51.183Z,27.70
2023-02-22T09:34:19.541Z,19.97
2023-02-22T09:36:47.697Z,27.73
2023-02-22T09:39:16.215Z,24.00
2023-02-22T09:41:51.090Z,22.50
2023-02-22T09:44:26.417Z,19.67
2023-02-22T09:46:55.517Z,21.10
2023-02-22T09:49:29.306Z,20.93
2023-02-22T09:52:01.532Z,54.10
2023-02-22T09:54:34.371Z,24.57
2023-02-22T09:57:07.942Z,22.80
2023-02-22T09:59:39.969Z,23.87
2023-02-22T10:02:24.212Z,23.03
2023-02-22T10:04:57.156Z,17.37
2023-02-22T10:07:28.934Z,23.77
2023-02-22T10:09:57.826Z,19.43
2023-02-22T10:12:30.395Z,17.10
2023-02-22T10:15:47.284Z,21.73
2023-02-22T10:18:49.540Z,16.93
2023-02-22T10:21:39.655Z,22.07
2023-02-22T10:24:18.227Z,16.60
2023-02-22T10:26:46.567Z,18.80
2023-02-22T10:29:23.230Z,18.60
2023-02-22T10:31:56.529Z,20.60
2023-02-22T10:34:26.137Z,16.30
2023-02-22T10:36:58.156Z,15.13
2023-02-22T10:39:30.358Z,12.10
2023-02-22T10:42:05.170Z,16.40
2023-02-22T10:44:33.013Z,17.30
2023-02-22T10:47:02.435Z,18.20
2023-02-22T10:49:34.175Z,15.97
2023-02-22T10:52:03.715Z,35.00
2023-02-22T10:54:34.880Z,18.13
2023-02-22T10:57:03.308Z,16.17
2023-02-22T10:59:33.365Z,16.47
2023-02-22T11:02:07.754Z,17.17
2023-02-22T11:04:46.811Z,15.97
2023-02-22T11:07:23.819Z,15.20
2023-02-22T11:09:54.099Z,16.50
2023-02-22T11:12:28.664Z,18.33
2023-02-22T11:14:56.358Z,9.77
2023-02-22T11:17:30.803Z,11.43
2023-02-22T11:19:59.720Z,8.77
2023-02-22T11:22:30.250Z,9.70
2023-02-22T11:25:00.595Z,11.53
2023-02-22T11:27:33.108Z,12.90
2023-02-22T11:30:28.300Z,11.87
2023-02-22T11:32:58.582Z,8.23
2023-02-22T11:35:48.856Z,10.33
2023-02-22T11:38:20.393Z,5.30
2023-02-22T11:41:04.152Z,4.23
2023-02-22T11:43:31.871Z,12.63
2023-02-22T11:46:03.343Z,11.10
2023-02-22T11:48:35.898Z,10.47
2023-02-22T11:51:16.800Z,14.90
2023-02-22T11:54:12.618Z,11.73
2023-02-22T11:56:44.807Z,22.30
2023-02-22T11:59:23.399Z,17.87
2023-02-22T12:01:55.318Z,14.63
2023-02-22T12:04:55.263Z,11.37
2023-02-22T12:07:36.685Z,18.87
2023-02-22T12:10:17.624Z,16.30
2023-02-22T12:13:03.497Z,15.10
2023-02-22T12:15:39.457Z,12.57
2023-02-22T12:18:13.594Z,12.17
2023-02-22T12:20:45.557Z,16.53
2023-02-22T12:23:19.952Z,11.50
2023-02-22T12:25:57.973Z,11.83
2023-02-22T12:28:35.782Z,13.20
2023-02-22T12:31:15.814Z,16.50
2023-02-22T12:33:49.500Z,15.53
2023-02-22T12:36:22.335Z,16.50
2023-02-22T12:38:54.668Z,22.73
2023-02-22T12:41:28.802Z,18.43
2023-02-22T12:44:02.142Z,13.40
2023-02-22T12:46:33.690Z,17.40
2023-02-22T12:49:07.787Z,12.03
2023-02-22T12:51:42.723Z,16.03
2023-02-22T12:54:19.854Z,10.30
2023-02-22T12:56:54.342Z,12.37
2023-02-22T12:59:28.574Z,11.20
2023-02-22T13:01:59.313Z,14.27
2023-02-22T13:04:26.683Z,14.93
2023-02-22T13:07:08.066Z,11.00
2023-02-22T13:10:02.928Z,7.40
2023-02-22T13:12:40.169Z,12.07
2023-02-22T13:15:18.506Z,10.30
2023-02-22T13:17:54.506Z,12.17
2023-02-22T13:20:27.045Z,10.53
2023-02-22T13:23:00.248Z,16.60
2023-02-22T13:25:36.964Z,11.33
2023-02-22T13:28:18.695Z,16.83
2023-02-22T13:30:58.006Z,12.47
2023-02-22T13:33:53.414Z,12.57
2023-02-22T13:36:37.255Z,12.17
2023-02-22T13:39:59.369Z,12.60
2023-02-22T13:42:45.027Z,13.60
2023-02-22T13:45:52.428Z,14.47
2023-02-22T13:48:53.305Z,13.23
2023-02-22T13:51:39.498Z,12.40
2023-02-22T13:54:13.169Z,16.50
2023-02-22T13:56:44.586Z,14.70
2023-02-22T13:59:25.020Z,19.97
2023-02-22T14:01:54.168Z,16.03
2023-02-22T14:04:39.231Z,13.90
2023-02-22T14:07:54.707Z,15.80
2023-02-22T14:10:48.369Z,20.50
2023-02-22T14:13:17.440Z,10.60
2023-02-22T14:16:17.973Z,12.17
2023-02-22T14:18:48.691Z,12.10
2023-02-22T14:21:18.526Z,10.80
2023-02-22T14:23:47.424Z,13.60
2023-02-22T14:26:18.958Z,16.90
2023-02-22T14:28:54.038Z,14.43
2023-02-22T14:31:35.483Z,13.37
2023-02-22T14:34:09.836Z,12.63
2023-02-22T14:36:44.456Z,11.60
2023-02-22T14:39:25.569Z,12.57
2023-02-22T14:42:00.724Z,11.73
2023-02-22T14:44:35.168Z,14.00
2023-02-22T14:47:07.692Z,12.43
2023-02-22T14:49:40.809Z,11.70
2023-02-22T14:52:18.422Z,15.47
2023-02-22T14:55:04.582Z,18.50
2023-02-22T14:57:41.546Z,12.83
2023-02-22T15:00:19.693Z,22.30
2023-02-22T15:02:48.688Z,15.13
2023-02-22T15:05:20.113Z,16.03
2023-02-22T15:07:56.030Z,22.37
2023-02-22T15:10:27.282Z,16.27
2023-02-22T15:13:07.980Z,18.57
2023-02-22T15:15:37.684Z,20.13
2023-02-22T15:18:11.063Z,15.57
2023-02-22T15:20:38.595Z,19.07
2023-02-22T15:23:06.582Z,16.30
2023-02-22T15:25:36.879Z,15.80
2023-02-22T15:28:08.657Z,19.10
2023-02-22T17:36:39.278Z,19.07
2023-02-22T17:39:09.724Z,24.93
2023-02-22T17:41:40.058Z,18.67
2023-02-22T17:44:07.799Z,25.43
2023-02-22T17:46:36.268Z,25.63
2023-02-22T17:49:03.703Z,26.17
2023-02-22T17:51:31.061Z,20.00
2023-02-22T17:53:59.082Z,23.90
2023-02-22T17:56:26.391Z,22.00
2023-02-22T17:58:54.859Z,21.70
2023-02-22T18:01:24.649Z,25.53
2023-02-22T18:03:52.616Z,26.87
2023-02-22T18:06:24.809Z,24.17
2023-02-22T18:08:55.714Z,25.90
2023-02-22T18:11:25.883Z,31.90
2023-02-22T18:13:53.736Z,24.00
2023-02-22T18:16:21.497Z,23.20
2023-02-22T18:18:49.502Z,23.87
2023-02-22T18:21:17.048Z,21.57
2023-02-22T18:23:44.829Z,21.80
2023-02-22T18:26:15.970Z,19.07
2023-02-22T18:28:47.890Z,23.23
2023-02-22T18:31:17.069Z,23.90
2023-02-22T18:33:45.479Z,21.20
2023-02-22T18:36:13.731Z,19.67
2023-02-22T18:38:42.477Z,32.03
2023-02-22T18:41:12.136Z,20.40
2023-02-22T18:43:39.889Z,23.57
2023-02-22T18:46:10.136Z,32.40
2023-02-22T18:48:37.894Z,22.77
2023-02-22T18:51:08.747Z,22.00
2023-02-22T18:53:36.788Z,30.47
2023-02-22T18:56:05.755Z,27.20
2023-02-22T18:58:33.520Z,29.70
2023-02-22T19:01:00.907Z,31.20
2023-02-22T19:03:29.277Z,22.00
2023-02-22T19:06:00.351Z,25.37
2023-02-22T19:08:27.912Z,24.63
2023-02-22T19:10:55.179Z,23.83
2023-02-22T19:13:22.580Z,23.93
2023-02-22T19:15:49.888Z,25.97
2023-02-22T19:18:17.304Z,23.70
2023-02-22T19:20:54.603Z,27.83
2023-02-22T19:23:21.866Z,24.10
2023-02-22T19:25:49.872Z,24.93
2023-02-22T19:28:17.209Z,29.93
2023-02-22T19:30:44.554Z,30.50
2023-02-22T19:33:11.978Z,34.97
2023-02-22T19:35:47.395Z,26.70
2023-02-22T19:38:15.556Z,27.87
2023-02-22T19:40:42.893Z,28.27
2023-02-22T19:43:10.234Z,33.30
2023-02-22T19:45:40.099Z,27.83
2023-02-22T19:48:07.782Z,26.33
2023-02-22T19:50:35.147Z,32.60
2023-02-22T19:53:02.678Z,29.67
2023-02-22T19:55:31.580Z,29.43
2023-02-22T19:57:58.935Z,32.30
2023-02-22T20:00:27.124Z,29.63
2023-02-22T20:03:04.821Z,27.67
2023-02-22T20:05:32.935Z,32.20
2023-02-22T20:08:00.551Z,30.80
2023-02-22T20:10:27.900Z,30.97
2023-02-22T20:12:55.924Z,29.03
2023-02-22T20:15:23.296Z,34.17
2023-02-22T20:17:50.818Z,32.50
2023-02-22T20:20:18.492Z,28.37
2023-02-22T20:22:45.879Z,37.87
2023-02-22T20:25:13.314Z,24.93
2023-02-22T20:27:40.606Z,28.73
2023-02-22T20:30:09.966Z,30.23
2023-02-22T20:32:37.454Z,32.63
2023-02-22T20:35:05.663Z,29.53
2023-02-22T20:37:33.413Z,40.03
2023-02-22T20:40:03.647Z,44.50
2023-02-22T20:42:31.486Z,62.00
2023-02-22T20:45:01.213Z,63.97
2023-02-22T20:47:29.192Z,49.40
2023-02-22T20:49:56.524Z,30.63
2023-02-22T20:52:23.913Z,28.60
2023-02-22T20:54:51.199Z,43.20
2023-02-22T20:57:18.543Z,33.93
2023-02-22T20:59:46.952Z,39.93
2023-02-22T21:02:14.242Z,45.90
2023-02-22T21:04:42.370Z,59.03
2023-02-22T21:07:09.790Z,76.20
2023-02-22T21:09:37.649Z,51.50
2023-02-22T21:12:12.562Z,41.63
2023-02-22T21:14:40.719Z,36.17
2023-02-22T21:17:08.841Z,32.80
2023-02-22T21:19:36.601Z,33.07
2023-02-22T21:22:07.613Z,31.70
2023-02-22T21:24:36.252Z,41.77
2023-02-22T21:27:06.120Z,31.07
2023-02-22T21:29:34.874Z,33.37
2023-02-22T21:32:02.562Z,35.53
2023-02-22T21:34:30.086Z,29.73
2023-02-22T21:36:57.442Z,27.87
2023-02-22T21:39:27.916Z,41.23
2023-02-22T21:41:59.368Z,30.10
2023-02-22T21:44:27.625Z,33.87
2023-02-22T21:46:55.066Z,37.10
2023-02-22T21:49:22.501Z,35.20
2023-02-22T21:51:51.339Z,29.60
2023-02-22T21:54:19.292Z,32.67
2023-02-22T21:56:47.643Z,34.00
2023-02-22T21:59:18.199Z,31.53
2023-02-22T22:01:49.009Z,42.43
2023-02-22T22:04:18.595Z,32.63
2023-02-22T22:06:48.125Z,35.47
2023-02-22T22:09:19.025Z,35.57
2023-02-22T22:11:49.347Z,34.17
2023-02-22T22:14:17.094Z,35.00
2023-02-22T22:16:47.344Z,30.97
2023-02-22T22:19:14.767Z,32.53
2023-02-22T22:21:42.196Z,33.00
2023-02-22T22:24:10.093Z,33.63
2023-02-22T22:26:38.145Z,31.40
2023-02-22T22:29:09.412Z,34.10
2023-02-22T22:31:37.133Z,41.77
2023-02-22T22:34:05.333Z,35.37
2023-02-22T22:36:33.766Z,38.20
2023-02-22T22:39:01.290Z,36.80
2023-02-22T22:41:28.677Z,34.63
2023-02-22T22:43:56.276Z,37.37
2023-02-22T22:46:24.384Z,32.63
2023-02-22T22:48:51.722Z,37.00
2023-02-22T22:51:22.694Z,31.40
2023-02-22T22:53:50.628Z,37.33
2023-02-22T22:56:19.786Z,34.63
2023-02-22T22:58:49.448Z,32.73
2023-02-22T23:01:19.288Z,35.67
2023-02-22T23:03:54.172Z,33.23
2023-02-22T23:06:24.632Z,38.23
2023-02-22T23:09:09.681Z,31.37
2023-02-22T23:11:38.130Z,32.67
2023-02-22T23:14:06.404Z,30.70
2023-02-22T23:16:33.794Z,38.57
2023-02-22T23:19:01.789Z,36.40
2023-02-22T23:21:29.097Z,38.53
2023-02-22T23:23:57.808Z,34.33
2023-02-22T23:26:26.094Z,31.30
2023-02-22T23:28:58.471Z,36.97
2023-02-22T23:31:28.124Z,34.77
2023-02-22T23:33:57.868Z,34.37
2023-02-22T23:36:26.392Z,37.87
2023-02-22T23:38:53.867Z,39.70
2023-02-22T23:41:24.271Z,35.53
2023-02-22T23:43:51.616Z,36.77
2023-02-22T23:46:19.113Z,40.90
2023-02-22T23:48:51.202Z,42.80
2023-02-22T23:51:24.453Z,39.23
2023-02-22T23:53:54.954Z,39.60
2023-02-22T23:56:24.093Z,43.67
2023-02-22T23:58:51.986Z,39.27
